Time;durP1;ratioP1;P1;durP2;ratioP2;P2;SDS_P1;SDS_P2;PMS_P1;PMS_P2;Temp;Humidity;BMP_temperature;BMP_pressure;BME280_temperature;BME280_humidity;BME280_pressure;Samples;Min_cycle;Max_cycle;Signal;HPM_P1;HPM_P2
2022/09/09 00:01:30;;;;;;;11.27;9.15;;;;;;;17.46;84.26;95222.13;5080783;28;20052;-76
2022/09/09 00:04:03;;;;;;;9.63;8.45;;;;;;;17.46;84.69;95226.63;5082737;28;20044;-75
2022/09/09 00:06:35;;;;;;;10.07;8.75;;;;;;;17.45;84.48;95214.50;5079193;28;20669;-76
2022/09/09 00:09:18;;;;;;;11.35;9.02;;;;;;;17.36;85.58;95196.59;5102860;27;20728;-76
2022/09/09 00:11:58;;;;;;;10.13;8.63;;;;;;;17.31;85.98;95193.97;5096029;27;20050;-75
2022/09/09 00:14:43;;;;;;;10.82;8.77;;;;;;;17.26;86.90;95191.34;5081665;28;20051;-76
2022/09/09 00:17:18;;;;;;;9.55;8.55;;;;;;;17.04;87.17;95178.44;5079450;27;20931;-76
2022/09/09 00:19:53;;;;;;;9.90;8.60;;;;;;;17.09;87.08;95185.56;5100571;27;20038;-75
2022/09/09 00:22:26;;;;;;;17.20;9.43;;;;;;;17.09;87.00;95196.09;5081827;27;20074;-76
2022/09/09 00:25:02;;;;;;;9.63;8.65;;;;;;;17.07;86.68;95195.53;5104737;27;20504;-76
2022/09/09 00:27:39;;;;;;;10.20;8.80;;;;;;;17.02;86.78;95179.78;5094646;28;20143;-75
2022/09/09 00:30:22;;;;;;;13.05;8.70;;;;;;;17.08;86.71;95189.25;5099762;27;20040;-76
2022/09/09 00:33:11;;;;;;;11.50;8.55;;;;;;;17.14;86.73;95185.53;5078514;28;20040;-76
2022/09/09 00:35:44;;;;;;;9.50;8.50;;;;;;;17.10;86.53;95181.88;5090707;27;20075;-77
2022/09/09 00:38:24;;;;;;;12.27;8.73;;;;;;;17.12;86.49;95182.38;5080054;28;20043;-76
2022/09/09 00:41:19;;;;;;;8.63;7.38;;;;;;;17.08;86.49;95178.72;5098206;28;20790;-76
2022/09/09 00:44:02;;;;;;;13.38;8.40;;;;;;;17.05;86.51;95179.22;5107425;27;20050;-76
2022/09/09 00:47:00;;;;;;;11.27;8.40;;;;;;;16.95;86.01;95154.50;5075824;28;20120;-76
2022/09/09 00:49:50;;;;;;;10.65;7.97;;;;;;;17.06;85.71;95170.28;5096851;28;20040;-76
2022/09/09 00:52:37;;;;;;;12.82;8.27;;;;;;;17.04;85.92;95172.41;5043849;28;20051;-75
2022/09/09 00:55:12;;;;;;;11.20;8.35;;;;;;;17.03;85.78;95182.13;5098048;28;20035;-75
2022/09/09 00:57:41;;;;;;;11.52;8.18;;;;;;;17.03;85.59;95186.59;5098085;28;20079;-76
2022/09/09 01:00:49;;;;;;;10.32;7.47;;;;;;;17.03;85.40;95186.59;5079535;28;20451;-76
2022/09/09 01:03:30;;;;;;;8.43;7.60;;;;;;;17.03;85.34;95181.34;5061010;28;20043;-76
2022/09/09 01:06:16;;;;;;;9.23;7.75;;;;;;;17.02;86.03;95187.66;5064505;28;20054;-76
2022/09/09 01:08:50;;;;;;;10.02;7.82;;;;;;;16.90;86.23;95172.91;5096734;28;20036;-77
2022/09/09 01:11:24;;;;;;;8.80;7.30;;;;;;;16.85;86.06;95158.97;5099217;28;20820;-77
2022/09/09 01:14:10;;;;;;;;;;;;;;;16.88;85.99;95177.66;5079755;28;20036;-77
2022/09/09 01:16:38;;;;;;;10.38;7.63;;;;;;;16.82;85.59;95162.88;5078818;28;19924;-77
2022/09/09 01:19:12;;;;;;;10.93;7.32;;;;;;;16.88;85.34;95180.28;5080071;28;20039;-77
2022/09/09 01:21:45;;;;;;;9.30;7.57;;;;;;;16.91;85.31;95178.97;5079299;27;20047;-77
2022/09/09 01:24:35;;;;;;;9.45;7.28;;;;;;;16.90;85.50;95178.16;5064074;27;20052;-77
2022/09/09 01:27:14;;;;;;;12.77;8.32;;;;;;;16.77;86.00;95162.88;5085297;27;20049;-77
2022/09/09 01:29:42;;;;;;;8.05;7.25;;;;;;;16.71;86.42;95166.53;5081353;28;20619;-77
2022/09/09 01:32:39;;;;;;;17.05;7.90;;;;;;;16.80;86.37;95162.38;5082631;27;20170;-77
2022/09/09 01:35:23;;;;;;;9.90;7.38;;;;;;;16.80;86.04;95167.63;5082981;27;20424;-77
2022/09/09 01:37:51;;;;;;;11.98;7.93;;;;;;;16.78;86.17;95161.81;5082542;28;20047;-77
2022/09/09 01:40:18;;;;;;;11.55;8.55;;;;;;;16.76;86.27;95161.28;5082232;28;20028;-77
2022/09/09 01:42:47;;;;;;;9.65;8.07;;;;;;;16.74;85.97;95153.66;5083038;27;20049;-77
2022/09/09 01:45:14;;;;;;;8.50;7.60;;;;;;;16.80;86.14;95172.88;5082691;28;20043;-77
2022/09/09 01:47:41;;;;;;;9.65;8.60;;;;;;;16.77;86.15;95168.91;5063245;27;20908;-77
2022/09/09 01:50:26;;;;;;;9.77;7.95;;;;;;;16.74;86.46;95169.44;5100669;27;20182;-76
2022/09/09 01:52:58;;;;;;;11.63;7.75;;;;;;;16.76;87.16;95184.97;5063454;28;20055;-77
2022/09/09 01:55:37;;;;;;;9.60;8.20;;;;;;;16.73;86.81;95178.41;5085583;27;20337;-77
2022/09/09 01:58:23;;;;;;;10.90;8.00;;;;;;;16.75;86.58;95191.28;5079595;27;20295;-77
2022/09/09 02:01:11;;;;;;;8.32;7.43;;;;;;;16.73;86.26;95193.41;5066856;27;20617;-77
2022/09/09 02:03:47;;;;;;;8.40;7.43;;;;;;;16.56;86.62;95181.25;5062753;27;20048;-77
2022/09/09 02:06:21;;;;;;;12.70;8.38;;;;;;;16.63;87.28;95194.94;5082724;27;20177;-77
2022/09/09 02:08:54;;;;;;;18.02;8.30;;;;;;;16.56;87.23;95183.09;5080500;27;21529;-77
2022/09/09 02:11:27;;;;;;;12.05;7.97;;;;;;;16.55;87.24;95177.03;5084448;27;20047;-77
2022/09/09 02:14:12;;;;;;;10.35;8.65;;;;;;;16.56;87.17;95178.59;5081836;28;20039;-77
2022/09/09 02:16:49;;;;;;;9.13;8.23;;;;;;;16.55;87.71;95186.78;5082412;27;20044;-77
2022/09/09 02:19:48;;;;;;;9.55;8.65;;;;;;;16.51;87.49;95181.25;5081240;28;20071;-77
2022/09/09 02:22:26;;;;;;;9.48;8.13;;;;;;;16.46;87.58;95178.59;5086877;27;20052;-77
2022/09/09 02:24:58;;;;;;;13.50;7.70;;;;;;;16.34;87.71;95157.00;5081884;28;20050;-77
2022/09/09 02:27:29;;;;;;;11.30;8.25;;;;;;;16.48;86.99;95175.72;5085665;28;20054;-77
2022/09/09 02:30:00;;;;;;;8.55;7.75;;;;;;;16.35;87.36;95167.28;5076611;27;20467;-77
2022/09/09 02:32:43;;;;;;;8.60;7.70;;;;;;;16.43;87.49;95179.13;5081816;28;20078;-77
2022/09/09 02:35:17;;;;;;;9.80;6.93;;;;;;;16.43;86.59;95173.84;5084362;27;20520;-77
2022/09/09 02:37:47;;;;;;;10.93;7.65;;;;;;;16.41;86.97;95173.31;5105798;27;20032;-77
2022/09/09 02:40:16;;;;;;;9.25;6.95;;;;;;;16.35;86.74;95161.19;5092409;27;20044;-77
2022/09/09 02:42:54;;;;;;;14.40;7.18;;;;;;;16.39;87.02;95173.59;5069664;28;20039;-77
2022/09/09 02:45:30;;;;;;;8.77;7.10;;;;;;;16.40;86.48;95175.19;5067745;27;20040;-77
2022/09/09 02:48:18;;;;;;;8.30;7.00;;;;;;;16.41;86.90;95168.06;5103101;27;20043;-77
2022/09/09 02:50:53;;;;;;;10.65;7.57;;;;;;;16.42;86.65;95172.25;5084535;28;20046;-78
2022/09/09 02:53:29;;;;;;;7.95;6.93;;;;;;;16.34;86.77;95162.28;5086057;28;20079;-77
2022/09/09 02:56:09;;;;;;;9.98;7.35;;;;;;;16.36;87.45;95173.31;5100597;27;20130;-77
2022/09/09 02:58:40;;;;;;;9.85;6.97;;;;;;;16.30;86.82;95163.84;5091271;27;20047;-77
2022/09/09 03:01:08;;;;;;;8.50;6.95;;;;;;;16.19;86.81;95150.66;5108598;27;20163;-76
2022/09/09 03:03:35;;;;;;;8.45;6.70;;;;;;;16.18;86.62;95151.69;5093464;28;20113;-76
2022/09/09 03:06:08;;;;;;;7.68;6.88;;;;;;;16.30;86.67;95174.34;5095167;27;20047;-77
2022/09/09 03:08:49;;;;;;;8.45;6.80;;;;;;;16.25;87.57;95162.75;5076481;27;20047;-76
2022/09/09 03:11:21;;;;;;;10.48;6.97;;;;;;;16.21;86.72;95156.44;5093853;27;20047;-79
2022/09/09 03:13:49;;;;;;;10.32;7.28;;;;;;;16.21;87.08;95166.97;5102790;27;20035;-77
2022/09/09 03:16:17;;;;;;;20.00;7.35;;;;;;;16.11;87.36;95160.88;5081835;27;20051;-77
2022/09/09 03:18:47;;;;;;;8.35;7.07;;;;;;;16.20;86.85;95186.38;5092465;28;20043;-76
2022/09/09 03:21:14;;;;;;;11.90;6.60;;;;;;;16.13;86.70;95175.31;5110052;27;20405;-76
2022/09/09 03:23:44;;;;;;;7.40;6.60;;;;;;;15.91;86.89;95151.84;5088712;27;20062;-77
2022/09/09 03:26:11;;;;;;;7.97;6.68;;;;;;;16.11;86.93;95177.41;5077397;28;20042;-77
2022/09/09 03:28:43;;;;;;;8.73;6.82;;;;;;;16.15;86.70;95183.75;5101963;27;20036;-77
2022/09/09 03:31:10;;;;;;;7.93;6.82;;;;;;;16.09;86.87;95184.78;5088988;27;20073;-76
2022/09/09 03:33:41;;;;;;;12.50;7.45;;;;;;;16.04;86.94;95187.38;5092780;28;20104;-76
2022/09/09 03:36:11;;;;;;;12.95;7.32;;;;;;;16.04;87.33;95192.63;5111188;27;21130;-77
2022/09/09 03:38:38;;;;;;;9.93;7.03;;;;;;;15.93;87.24;95185.75;5106218;27;20043;-77
2022/09/09 03:41:07;;;;;;;8.82;6.75;;;;;;;15.92;87.71;95178.91;5074332;27;20047;-76
2022/09/09 03:43:35;;;;;;;9.52;6.28;;;;;;;15.83;87.81;95166.28;5084286;27;20047;-76
2022/09/09 03:46:02;;;;;;;11.25;7.10;;;;;;;15.82;88.08;95169.16;5081746;28;20051;-76
2022/09/09 03:48:29;;;;;;;9.75;6.90;;;;;;;15.89;88.46;95174.19;5066563;27;20047;-76
2022/09/09 03:51:00;;;;;;;9.88;7.30;;;;;;;15.89;88.28;95192.56;5087223;27;20044;-76
2022/09/09 03:53:29;;;;;;;7.63;6.85;;;;;;;15.80;88.47;95182.53;5085168;28;20047;-76
2022/09/09 03:55:59;;;;;;;10.20;6.95;;;;;;;15.90;88.28;95196.75;5070507;28;20104;-76
2022/09/09 03:58:28;;;;;;;13.65;7.72;;;;;;;15.83;89.72;95197.78;5082788;28;20047;-76
2022/09/09 04:01:08;;;;;;;10.40;9.23;;;;;;;15.88;91.05;95189.13;5086034;28;20625;-76
2022/09/09 04:03:36;;;;;;;14.57;9.35;;;;;;;15.85;91.23;95179.94;5084024;28;20043;-76
2022/09/09 04:06:06;;;;;;;11.02;8.48;;;;;;;15.80;90.96;95171.25;5098241;27;20262;-77
2022/09/09 04:08:35;;;;;;;17.35;9.65;;;;;;;15.58;93.77;95174.00;5082636;27;20047;-77
2022/09/09 04:11:04;;;;;;;9.95;8.60;;;;;;;15.51;94.51;95189.19;5079344;28;21526;-77
2022/09/09 04:13:34;;;;;;;10.43;7.68;;;;;;;15.44;94.18;95192.78;5082504;28;20082;-77
2022/09/09 04:16:03;;;;;;;8.77;7.80;;;;;;;15.49;93.85;95203.31;5079680;28;20066;-77
2022/09/09 04:18:34;;;;;;;9.45;7.78;;;;;;;15.42;93.48;95192.25;5063368;28;20058;-77
2022/09/09 04:21:04;;;;;;;10.27;8.63;;;;;;;15.57;93.24;95203.91;5078837;28;20039;-77
2022/09/09 04:23:33;;;;;;;12.30;8.27;;;;;;;15.57;93.90;95193.41;5080913;28;20046;-77
2022/09/09 04:26:02;;;;;;;11.07;9.88;;;;;;;15.66;94.54;95197.94;5100319;27;20051;-77
2022/09/09 04:28:33;;;;;;;13.40;10.07;;;;;;;15.78;94.46;95199.59;5077546;28;20048;-76
2022/09/09 04:31:09;;;;;;;15.77;8.95;;;;;;;15.85;93.73;95200.94;5082021;28;20062;-77
2022/09/09 04:33:39;;;;;;;10.85;9.05;;;;;;;15.89;93.67;95195.19;5078494;27;20111;-77
2022/09/09 04:36:08;;;;;;;9.50;8.50;;;;;;;15.86;94.12;95180.72;5078934;28;20571;-78
2022/09/09 04:38:35;;;;;;;15.35;9.32;;;;;;;16.03;94.08;95198.94;5081244;27;20076;-77
2022/09/09 04:41:04;;;;;;;16.20;8.20;;;;;;;15.97;92.76;95176.31;5082380;28;20040;-77
2022/09/09 04:43:32;;;;;;;9.10;7.80;;;;;;;16.10;91.86;95175.84;5077273;28;20039;-77
2022/09/09 04:46:01;;;;;;;14.45;10.20;;;;;;;16.29;91.63;95183.28;5081202;27;20524;-67
2022/09/09 04:48:30;;;;;;;17.80;11.88;;;;;;;16.39;91.66;95188.56;5076288;28;20063;-67
2022/09/09 04:51:04;;;;;;;16.98;9.18;;;;;;;16.48;92.22;95181.75;5077763;28;20059;-67
2022/09/09 04:53:34;;;;;;;18.95;8.88;;;;;;;16.41;91.26;95150.44;5080380;28;20122;-72
2022/09/09 04:56:04;;;;;;;8.93;7.90;;;;;;;16.75;91.08;95193.91;5080500;28;20048;-69
2022/09/09 04:58:35;;;;;;;12.75;7.93;;;;;;;16.76;91.12;95183.13;5080387;27;20481;-69
2022/09/09 05:01:05;;;;;;;12.32;8.70;;;;;;;16.79;90.34;95189.72;5084218;28;20808;-69
2022/09/09 05:03:32;;;;;;;12.93;9.27;;;;;;;16.83;90.02;95188.16;5080469;27;20116;-69
2022/09/09 05:06:10;;;;;;;12.20;8.80;;;;;;;16.92;90.53;95178.69;5086040;28;20131;-69
2022/09/09 05:08:40;;;;;;;12.77;10.38;;;;;;;17.03;91.00;95181.34;5080797;28;20171;-69
2022/09/09 05:11:16;;;;;;;12.82;9.60;;;;;;;16.94;90.98;95189.78;5084904;27;20039;-68
2022/09/09 05:13:44;;;;;;;13.95;9.77;;;;;;;17.06;90.18;95170.28;5102343;27;20044;-69
2022/09/09 05:16:11;;;;;;;12.43;9.65;;;;;;;17.16;89.87;95154.47;5083669;27;20865;-69
2022/09/09 05:18:39;;;;;;;10.38;9.18;;;;;;;17.32;90.23;95163.97;5065235;28;20750;-69
2022/09/09 05:21:07;;;;;;;8.80;7.90;;;;;;;17.43;89.37;95174.47;5077692;28;20077;-69
2022/09/09 05:23:35;;;;;;;9.23;7.88;;;;;;;17.55;88.18;95167.09;5086711;28;20337;-69
2022/09/09 05:26:03;;;;;;;8.50;7.20;;;;;;;17.71;86.89;95173.91;5080040;27;20059;-69
2022/09/09 05:28:31;;;;;;;8.77;6.43;;;;;;;17.89;85.78;95169.16;5086824;27;20047;-69
2022/09/09 05:31:07;;;;;;;9.85;6.10;;;;;;;18.05;83.95;95161.97;5096933;27;20032;-66
2022/09/09 05:33:36;;;;;;;7.68;4.95;;;;;;;18.19;81.40;95160.34;5111520;27;20047;-69
2022/09/09 05:36:07;;;;;;;7.63;4.85;;;;;;;18.38;79.13;95162.34;5080084;27;20036;-68
2022/09/09 05:38:35;;;;;;;8.50;4.80;;;;;;;18.57;77.95;95159.88;5083740;28;20578;-67
2022/09/09 05:41:03;;;;;;;7.60;4.78;;;;;;;18.73;75.75;95158.72;5080876;27;20047;-67
2022/09/09 05:43:32;;;;;;;6.57;4.03;;;;;;;18.86;75.45;95168.69;5074726;28;20066;-65
2022/09/09 05:46:01;;;;;;;5.68;4.35;;;;;;;18.95;74.29;95158.34;5082358;28;20585;-67
2022/09/09 05:48:30;;;;;;;8.63;4.63;;;;;;;19.17;73.44;95162.41;5083785;28;20723;-67
2022/09/09 05:50:58;;;;;;;4.95;4.30;;;;;;;19.31;70.84;95167.81;5084379;28;20100;-67
2022/09/09 05:53:31;;;;;;;7.22;4.45;;;;;;;19.43;69.57;95165.59;5100861;27;20474;-68
2022/09/09 05:56:07;;;;;;;6.88;4.18;;;;;;;19.59;69.64;95180.25;5085562;27;20051;-67
2022/09/09 05:58:34;;;;;;;6.85;4.78;;;;;;;19.75;68.43;95174.81;5080195;27;20071;-67
2022/09/09 06:01:10;;;;;;;5.45;4.20;;;;;;;19.89;68.33;95173.09;5084506;28;20142;-67
2022/09/09 06:03:40;;;;;;;9.05;5.03;;;;;;;20.01;67.89;95170.84;5081046;27;20040;-67
2022/09/09 06:06:09;;;;;;;19.75;4.93;;;;;;;20.13;68.21;95172.28;5083185;27;20521;-67
2022/09/09 06:08:38;;;;;;;7.72;4.38;;;;;;;20.31;66.28;95179.50;5082419;28;20054;-67
2022/09/09 06:11:09;;;;;;;13.25;4.05;;;;;;;20.40;65.97;95172.50;5080372;28;20051;-68
2022/09/09 06:13:38;;;;;;;8.48;4.50;;;;;;;20.55;64.82;95178.66;5082156;28;20516;-68
2022/09/09 06:16:09;;;;;;;6.28;4.30;;;;;;;20.68;63.04;95183.25;5087480;27;20126;-68
2022/09/09 06:18:36;;;;;;;8.30;3.97;;;;;;;20.78;63.38;95188.41;5080348;27;20047;-67
2022/09/09 06:21:06;;;;;;;6.78;3.80;;;;;;;20.87;63.73;95185.09;5068694;28;20042;-67
2022/09/09 06:23:37;;;;;;;5.57;4.43;;;;;;;21.02;62.63;95187.53;5083398;27;20047;-68
2022/09/09 06:26:07;;;;;;;10.18;4.20;;;;;;;21.12;62.09;95187.38;5085168;27;20043;-68
2022/09/09 06:28:36;;;;;;;7.15;3.95;;;;;;;21.19;61.11;95171.91;5083289;27;20043;-68
2022/09/09 06:31:06;;;;;;;5.55;3.78;;;;;;;21.43;61.36;95188.75;5084122;28;20099;-68
2022/09/09 06:33:35;;;;;;;9.45;3.92;;;;;;;21.44;60.16;95188.44;5080498;28;20130;-69
2022/09/09 06:36:04;;;;;;;7.28;3.70;;;;;;;21.61;59.51;95197.72;5099929;27;20093;-68
2022/09/09 06:38:31;;;;;;;9.10;3.83;;;;;;;21.77;58.26;95207.03;5087141;28;20147;-69
2022/09/09 06:40:59;;;;;;;5.70;4.00;;;;;;;21.67;57.36;95170.09;5082446;27;20132;-72
2022/09/09 06:43:28;;;;;;;6.50;3.47;;;;;;;21.81;57.12;95181.50;5087435;28;20047;-72
2022/09/09 06:45:56;;;;;;;6.55;3.53;;;;;;;21.94;56.34;95196.59;5078188;27;20074;-72
2022/09/09 06:48:23;;;;;;;5.05;3.38;;;;;;;22.05;56.63;95193.78;5068188;27;20040;-71
2022/09/09 06:50:50;;;;;;;6.63;3.95;;;;;;;21.99;56.42;95171.88;5083080;28;20059;-71
2022/09/09 06:53:18;;;;;;;7.82;3.63;;;;;;;22.27;56.76;95177.19;5087907;27;20051;-71
2022/09/09 06:55:46;;;;;;;7.10;3.85;;;;;;;22.45;55.08;95178.91;5078179;28;20050;-72
2022/09/09 06:58:13;;;;;;;6.82;3.60;;;;;;;22.45;55.31;95162.22;5083682;28;20055;-70
2022/09/09 07:00:40;;;;;;;5.25;4.25;;;;;;;22.60;54.87;95180.47;5080276;28;20047;-72
2022/09/09 07:03:07;;;;;;;3.92;3.33;;;;;;;22.89;55.14;95193.38;5100484;27;20051;-69
2022/09/09 07:05:36;;;;;;;5.78;3.80;;;;;;;22.98;53.96;95196.09;5084791;27;20059;-69
2022/09/09 07:08:03;;;;;;;4.97;3.80;;;;;;;23.14;53.90;95203.75;5096512;27;20043;-69
2022/09/09 07:10:29;;;;;;;5.20;3.40;;;;;;;23.32;52.33;95209.97;5072963;28;20056;-68
2022/09/09 07:12:56;;;;;;;6.03;3.45;;;;;;;23.36;52.58;95190.47;5082017;27;20283;-69
2022/09/09 07:15:24;;;;;;;8.48;3.60;;;;;;;23.50;51.29;95200.22;5074963;28;20048;-68
2022/09/09 07:17:53;;;;;;;5.53;3.83;;;;;;;23.51;50.90;95201.81;5078435;28;20099;-68
2022/09/09 07:20:20;;;;;;;5.43;3.50;;;;;;;23.58;50.44;95196.84;5085734;27;20039;-69
2022/09/09 07:22:49;;;;;;;8.27;3.83;;;;;;;23.71;51.70;95195.97;5079482;28;20067;-68
2022/09/09 07:25:17;;;;;;;7.40;3.65;;;;;;;23.82;50.74;95202.63;5088597;28;20421;-69
2022/09/09 07:27:45;;;;;;;7.35;3.42;;;;;;;23.87;50.59;95192.94;5066089;27;20047;-69
2022/09/09 07:30:13;;;;;;;5.03;4.15;;;;;;;23.99;49.84;95190.50;5068729;28;20039;-66
2022/09/09 07:32:51;;;;;;;5.53;3.30;;;;;;;24.13;50.06;95198.34;5087052;27;20044;-68
2022/09/09 07:35:18;;;;;;;7.25;4.18;;;;;;;24.20;49.07;95196.84;5106209;27;20051;-68
2022/09/09 07:37:45;;;;;;;7.82;3.58;;;;;;;24.26;48.15;95194.03;5082866;28;20180;-69
2022/09/09 07:40:17;;;;;;;6.05;3.70;;;;;;;24.41;49.50;95198.91;5079373;27;20385;-69
2022/09/09 07:42:44;;;;;;;5.50;3.42;;;;;;;24.58;47.36;95201.66;5083799;28;20047;-68
2022/09/09 07:45:11;;;;;;;6.03;3.33;;;;;;;24.53;47.91;95183.16;5085271;27;20807;-68
2022/09/09 07:47:38;;;;;;;7.03;4.30;;;;;;;24.60;47.63;95188.81;5090144;27;20040;-69
2022/09/09 07:50:06;;;;;;;11.70;3.80;;;;;;;24.71;48.40;95193.84;5088752;27;20600;-68
2022/09/09 07:52:34;;;;;;;6.68;3.60;;;;;;;24.81;46.17;95198.84;5087698;28;20134;-69
2022/09/09 07:55:04;;;;;;;6.47;4.10;;;;;;;24.88;46.98;95193.81;5084899;27;20130;-67
2022/09/09 07:57:32;;;;;;;4.90;4.07;;;;;;;25.10;46.77;95200.91;5083240;28;20043;-69
2022/09/09 08:00:00;;;;;;;4.95;4.03;;;;;;;25.26;47.52;95203.88;5080688;27;20038;-69
2022/09/09 08:02:29;;;;;;;3.55;3.20;;;;;;;25.43;46.51;95207.66;5101872;27;20048;-67
2022/09/09 08:04:57;;;;;;;6.07;3.90;;;;;;;25.64;44.75;95202.41;5079455;28;20139;-67
2022/09/09 08:07:26;;;;;;;4.35;3.60;;;;;;;25.72;44.34;95202.38;5099140;27;20047;-67
2022/09/09 08:09:55;;;;;;;5.68;3.67;;;;;;;25.90;44.85;95205.00;5080102;28;20035;-69
2022/09/09 08:12:27;;;;;;;13.40;4.43;;;;;;;26.10;44.00;95206.97;5077125;28;20105;-68
2022/09/09 08:14:55;;;;;;;4.88;3.90;;;;;;;26.25;43.80;95204.88;5098271;27;20051;-67
2022/09/09 08:17:24;;;;;;;7.03;3.58;;;;;;;26.27;44.20;95195.47;5079226;28;20044;-67
2022/09/09 08:19:52;;;;;;;7.82;4.50;;;;;;;26.51;44.05;95208.19;5077579;27;20043;-67
2022/09/09 08:22:24;;;;;;;6.68;4.28;;;;;;;26.69;42.20;95203.56;5079757;28;20043;-67
2022/09/09 08:24:51;;;;;;;6.00;3.58;;;;;;;26.66;41.39;95203.44;5078619;27;20049;-66
2022/09/09 08:27:18;;;;;;;6.72;3.90;;;;;;;26.46;42.65;95205.72;5077259;28;20139;-68
2022/09/09 08:29:45;;;;;;;6.18;3.65;;;;;;;26.68;42.06;95201.22;5097573;27;20893;-68
2022/09/09 08:32:13;;;;;;;7.25;3.80;;;;;;;26.97;42.64;95204.94;5076537;28;20546;-66
2022/09/09 08:34:41;;;;;;;4.82;3.88;;;;;;;26.84;41.41;95204.88;5084477;28;20059;-68
2022/09/09 08:37:16;;;;;;;4.55;3.80;;;;;;;27.04;40.64;95203.28;5076777;28;20120;-67
2022/09/09 08:39:43;;;;;;;7.30;3.97;;;;;;;27.16;41.81;95194.56;5088181;27;20126;-69
2022/09/09 08:42:34;;;;;;;4.55;3.97;;;;;;;27.43;41.22;95198.59;5085103;28;20028;-66
2022/09/09 08:45:24;;;;;;;4.97;3.17;;;;;;;27.90;41.29;95199.38;5085177;28;20054;-67
2022/09/09 08:48:18;;;;;;;6.07;3.83;;;;;;;28.31;39.90;95195.72;5076190;28;20179;-66
2022/09/09 08:50:49;;;;;;;7.57;4.25;;;;;;;28.56;39.19;95171.63;5077032;28;20067;-67
2022/09/09 08:53:24;;;;;;;4.03;3.67;;;;;;;28.89;38.08;95189.41;5080536;28;20124;-66
2022/09/09 08:55:59;;;;;;;4.93;3.50;;;;;;;28.95;37.65;95188.81;5103797;28;20039;-67
2022/09/09 08:58:53;;;;;;;6.60;3.88;;;;;;;29.01;37.75;95192.06;5094459;28;20083;-68
2022/09/09 09:01:50;;;;;;;7.63;3.80;;;;;;;29.39;37.47;95196.19;5083318;28;20600;-69
2022/09/09 09:04:53;;;;;;;7.45;4.05;;;;;;;29.51;36.88;95187.28;5078983;28;20054;-69
2022/09/09 09:07:36;;;;;;;7.85;3.70;;;;;;;29.32;35.86;95187.94;5081917;28;20047;-68
2022/09/09 09:10:08;;;;;;;5.70;3.60;;;;;;;28.84;38.21;95186.97;5077217;28;20044;-68
2022/09/09 09:12:55;;;;;;;5.15;3.90;;;;;;;28.73;36.61;95182.06;5100286;28;20082;-67
2022/09/09 09:15:34;;;;;;;6.05;4.05;;;;;;;28.75;38.65;95179.84;5077847;28;20047;-68
2022/09/09 09:18:01;;;;;;;9.00;3.63;;;;;;;28.73;37.98;95184.75;5101458;27;20684;-68
2022/09/09 09:20:42;;;;;;;7.18;4.03;;;;;;;28.61;37.93;95190.13;5096109;28;20101;-68
2022/09/09 09:23:20;;;;;;;7.40;4.53;;;;;;;28.19;38.56;95185.00;5082480;28;20034;-68
2022/09/09 09:25:49;;;;;;;10.40;3.85;;;;;;;28.06;39.07;95186.91;5080533;28;20077;-69
2022/09/09 09:28:22;;;;;;;9.57;4.00;;;;;;;28.05;38.80;95185.34;5082548;28;20043;-69
2022/09/09 09:31:05;;;;;;;9.50;4.20;;;;;;;27.88;39.38;95180.19;5076933;28;20048;-69
2022/09/09 09:33:35;;;;;;;5.70;4.00;;;;;;;27.79;39.18;95177.59;5084244;28;20055;-70
2022/09/09 09:36:03;;;;;;;15.50;4.28;;;;;;;28.14;40.30;95166.50;5082251;28;20757;-69
2022/09/09 09:38:30;;;;;;;8.93;4.10;;;;;;;28.91;39.15;95181.81;5080795;28;20106;-68
2022/09/09 09:41:29;;;;;;;7.93;3.88;;;;;;;29.16;37.10;95188.66;5065606;28;20040;-69
2022/09/09 09:43:55;;;;;;;4.85;4.05;;;;;;;29.53;36.55;95179.66;5086829;27;20043;-68
2022/09/09 09:46:25;;;;;;;4.20;3.53;;;;;;;29.59;36.32;95185.59;5083368;27;20048;-69
2022/09/09 09:49:01;;;;;;;6.97;4.30;;;;;;;29.72;36.45;95181.69;5085248;28;20540;-68
2022/09/09 09:51:32;;;;;;;8.48;4.15;;;;;;;29.74;37.21;95190.19;5081408;28;20134;-68
2022/09/09 09:54:18;;;;;;;5.70;4.43;;;;;;;29.96;36.96;95180.00;5081868;28;20035;-69
2022/09/09 09:56:51;;;;;;;6.78;4.45;;;;;;;30.06;36.71;95174.13;5079842;27;20051;-68
2022/09/09 09:59:35;;;;;;;6.43;3.85;;;;;;;30.17;36.04;95175.13;5079749;27;20036;-69
2022/09/09 10:02:26;;;;;;;6.95;4.95;;;;;;;30.36;36.05;95176.34;5066881;28;20041;-69
2022/09/09 10:05:13;;;;;;;8.40;3.70;;;;;;;30.55;35.89;95162.97;5058069;28;20551;-68
2022/09/09 10:07:45;;;;;;;9.35;4.53;;;;;;;30.63;34.27;95164.69;5061251;28;20139;-67
2022/09/09 10:10:32;;;;;;;8.25;3.85;;;;;;;30.65;35.69;95161.66;5064512;28;20639;-68
2022/09/09 10:13:27;;;;;;;4.95;4.10;;;;;;;30.88;34.81;95156.34;5067263;28;20043;-67
2022/09/09 10:16:27;;;;;;;11.07;3.95;;;;;;;31.04;33.97;95167.84;5067976;28;20056;-67
2022/09/09 10:19:00;;;;;;;10.90;4.65;;;;;;;30.78;34.89;95176.50;5062062;28;20051;-67
2022/09/09 10:21:57;;;;;;;8.10;4.47;;;;;;;30.05;35.89;95164.50;5058414;28;20052;-67
2022/09/09 10:24:46;;;;;;;7.80;4.03;;;;;;;29.90;36.57;95166.81;5066973;28;20647;-67
2022/09/09 10:27:39;;;;;;;6.97;3.85;;;;;;;29.80;37.42;95167.38;5065489;28;20060;-67
2022/09/09 10:30:16;;;;;;;6.47;4.60;;;;;;;29.73;36.33;95172.53;5063245;28;20624;-68
2022/09/09 10:32:59;;;;;;;7.68;4.30;;;;;;;29.50;37.16;95175.78;5070211;28;20101;-68
2022/09/09 10:35:34;;;;;;;7.88;5.53;;;;;;;29.43;38.28;95169.47;5059869;28;20042;-68
2022/09/09 10:38:16;;;;;;;6.97;4.68;;;;;;;29.50;37.85;95169.66;5061143;28;20041;-68
2022/09/09 10:41:00;;;;;;;10.07;4.57;;;;;;;29.19;38.34;95159.59;5060507;28;20044;-66
2022/09/09 10:44:06;;;;;;;7.50;5.20;;;;;;;29.12;38.86;95170.91;5059198;28;20094;-68
2022/09/09 10:46:51;;;;;;;6.38;4.57;;;;;;;29.01;39.18;95170.63;5065088;28;20739;-67
2022/09/09 10:49:54;;;;;;;12.73;5.25;;;;;;;28.75;38.75;95169.09;5065319;28;20043;-67
2022/09/09 10:52:48;;;;;;;7.20;4.80;;;;;;;28.68;39.50;95170.81;5066854;28;20777;-69
2022/09/09 10:55:20;;;;;;;8.75;4.88;;;;;;;28.49;39.92;95168.72;5062426;28;20047;-69
2022/09/09 10:57:49;;;;;;;10.93;4.47;;;;;;;28.30;41.03;95175.41;5056253;28;20048;-68
2022/09/09 11:00:20;;;;;;;7.97;5.10;;;;;;;27.74;41.55;95167.88;5058863;28;20037;-68
2022/09/09 11:03:02;;;;;;;10.63;4.85;;;;;;;27.71;41.63;95165.09;5082726;27;20039;-68
2022/09/09 11:05:53;;;;;;;7.50;4.82;;;;;;;27.62;41.93;95146.47;5095951;27;20051;-67
2022/09/09 11:08:24;;;;;;;13.98;5.65;;;;;;;27.47;42.95;95166.59;5102552;27;20126;-79
2022/09/09 11:11:30;;;;;;;9.95;4.68;;;;;;;27.51;42.77;95156.81;5088775;28;20050;-79
2022/09/09 11:14:08;;;;;;;9.90;4.47;;;;;;;27.40;42.98;95169.03;5100095;27;20055;-78
2022/09/09 11:16:45;;;;;;;11.07;4.93;;;;;;;27.60;43.24;95162.88;5087089;28;20060;-78
2022/09/09 11:19:34;;;;;;;9.32;4.60;;;;;;;27.59;43.25;95163.97;5098399;27;20126;-75
2022/09/09 11:22:05;;;;;;;10.52;4.80;;;;;;;27.36;43.27;95160.13;5102714;27;20048;-77
2022/09/09 11:24:43;;;;;;;11.88;5.28;;;;;;;27.43;42.85;95160.38;5080702;28;20444;-75
2022/09/09 11:27:16;;;;;;;12.07;4.80;;;;;;;27.48;43.75;95152.13;5087796;28;20048;-73
2022/09/09 11:30:12;;;;;;;15.43;5.47;;;;;;;27.52;43.00;95153.03;5107069;27;20591;-74
2022/09/09 11:33:21;;;;;;;17.77;5.80;;;;;;;27.38;43.40;95155.22;5084907;27;20110;-66
2022/09/09 11:36:17;;;;;;;6.88;5.40;;;;;;;27.34;43.76;95141.72;5106848;27;20042;-67
2022/09/09 11:38:52;;;;;;;14.73;5.15;;;;;;;27.45;43.28;95142.88;5067657;27;20107;-67
2022/09/09 11:41:21;;;;;;;8.70;5.47;;;;;;;27.43;44.23;95139.75;5104718;27;20048;-67
2022/09/09 11:43:52;;;;;;;10.43;5.97;;;;;;;27.49;44.45;95134.19;5103719;27;20612;-73
2022/09/09 11:46:33;;;;;;;;;;;;;;;27.34;44.07;95140.97;5085657;28;20047;-74
2022/09/09 11:49:03;;;;;;;8.63;5.85;;;;;;;27.18;45.41;95122.81;5097048;27;19930;-73
2022/09/09 11:51:32;;;;;;;13.32;5.80;;;;;;;27.29;44.57;95117.09;5102786;27;20047;-72
2022/09/09 11:54:31;;;;;;;13.20;6.38;;;;;;;27.30;44.99;95110.63;5101637;27;20047;-72
2022/09/09 11:56:59;;;;;;;11.43;5.65;;;;;;;27.29;44.50;95095.72;5099289;28;20504;-71
2022/09/09 11:59:33;;;;;;;9.60;6.22;;;;;;;27.39;44.93;95096.06;5101212;27;20043;-71
2022/09/09 12:02:12;;;;;;;;;;;;;;;27.45;44.50;95104.66;5083896;28;20043;-74
2022/09/09 12:04:44;;;;;;;11.80;7.07;;;;;;;27.29;44.74;95060.94;5098999;27;19988;-73
2022/09/09 12:07:11;;;;;;;9.05;6.63;;;;;;;27.59;44.64;95083.72;5098339;27;20032;-71